Time;durP1;ratioP1;P1;durP2;ratioP2;P2;SDS_P1;SDS_P2;PMS_P1;PMS_P2;Temp;Humidity;BMP_temperature;BMP_pressure;BME280_temperature;BME280_humidity;BME280_pressure;Samples;Min_cycle;Max_cycle;Signal;HPM_P1;HPM_P2
2022/12/20 00:00:49;;;;;;;;;;;;;;;4.09;79.34;101586.78;5084495;28;19920;-59
2022/12/20 00:03:14;;;;;;;;;;;;;;;4.10;79.61;101586.75;5079008;28;19930;-58
2022/12/20 00:05:40;;;;;;;;;;;;;;;4.15;79.47;101593.63;5085431;28;19979;-60
2022/12/20 00:08:06;;;;;;;;;;;;;;;4.14;79.40;101597.13;5082418;28;19935;-61
2022/12/20 00:10:35;;;;;;;;;;;;;;;4.14;79.64;101590.19;5088774;28;20579;-58
2022/12/20 00:13:01;;;;;;;;;;;;;;;4.19;79.41;101583.13;5086637;28;19919;-60
2022/12/20 00:15:26;;;;;;;;;;;;;;;4.20;79.39;101569.22;5083474;28;19927;-61
2022/12/20 00:17:51;;;;;;;;;;;;;;;4.23;78.91;101550.94;5081384;28;20018;-58
2022/12/20 00:20:17;;;;;;;;;;;;;;;4.27;78.81;101550.00;5084741;28;19916;-58
2022/12/20 00:22:42;;;;;;;;;;;;;;;4.30;78.72;101554.28;5084308;28;19952;-59
2022/12/20 00:25:07;;;;;;;;;;;;;;;4.31;78.69;101552.56;5084937;28;20385;-58
2022/12/20 00:27:33;;;;;;;;;;;;;;;4.32;78.28;101551.63;5078992;28;20995;-61
2022/12/20 00:29:58;;;;;;;;;;;;;;;4.33;78.85;101545.53;5085456;28;19924;-58
2022/12/20 00:32:23;;;;;;;;;;;;;;;4.30;78.66;101545.63;5086961;28;19924;-59
2022/12/20 00:34:49;;;;;;;;;;;;;;;4.25;78.38;101553.50;5081372;28;19937;-58
2022/12/20 00:37:14;;;;;;;;;;;;;;;4.22;78.76;101551.81;5079694;28;19936;-60
2022/12/20 00:39:39;;;;;;;;;;;;;;;4.17;78.61;101548.44;5078890;28;20362;-61
2022/12/20 00:42:05;;;;;;;;;;;;;;;4.18;78.97;101544.09;5081641;28;19932;-59
2022/12/20 00:44:30;;;;;;;;;;;;;;;4.12;79.10;101545.91;5088006;28;19916;-57
2022/12/20 00:46:55;;;;;;;;;;;;;;;4.19;79.14;101545.81;5083821;28;20038;-58
2022/12/20 00:49:21;;;;;;;;;;;;;;;4.20;78.79;101543.16;5082604;28;19920;-58
2022/12/20 00:51:46;;;;;;;;;;;;;;;4.20;78.96;101548.38;5083348;28;19921;-60
2022/12/20 00:54:11;;;;;;;;;;;;;;;4.20;78.83;101553.59;5082122;28;19970;-59
2022/12/20 00:56:36;;;;;;;;;;;;;;;4.23;78.67;101550.09;5079134;28;20407;-58
2022/12/20 00:59:02;;;;;;;;;;;;;;;4.28;78.54;101556.06;5082830;28;20015;-58
2022/12/20 01:01:29;;;;;;;;;;;;;;;4.25;78.57;101546.56;5079687;28;20016;-58
2022/12/20 01:03:55;;;;;;;;;;;;;;;4.27;78.55;101557.81;5083834;28;19915;-58
2022/12/20 01:06:20;;;;;;;;;;;;;;;4.29;78.67;101547.34;5082731;28;20436;-59
2022/12/20 01:08:46;;;;;;;;;;;;;;;4.29;78.32;101554.31;5082080;28;19916;-60
2022/12/20 01:11:13;;;;;;;;;;;;;;;4.30;78.61;101545.63;5081240;28;19913;-59
2022/12/20 01:13:40;;;;;;;;;;;;;;;4.27;78.55;101544.78;5080666;28;19916;-59
2022/12/20 01:16:07;;;;;;;;;;;;;;;4.30;78.35;101543.00;5078897;28;19927;-58
2022/12/20 01:18:32;;;;;;;;;;;;;;;4.33;78.60;101548.16;5078893;28;19921;-58
2022/12/20 01:21:05;;;;;;;;;;;;;;;4.36;78.26;101553.31;5083126;28;19999;-61
2022/12/20 01:23:31;;;;;;;;;;;;;;;4.35;78.38;101546.38;5082941;28;19941;-59
2022/12/20 01:25:57;;;;;;;;;;;;;;;4.36;78.29;101538.53;5089873;28;20015;-58
2022/12/20 01:28:22;;;;;;;;;;;;;;;4.36;77.94;101527.25;5083039;28;20384;-59
2022/12/20 01:30:47;;;;;;;;;;;;;;;4.38;77.98;101541.09;5082965;28;19927;-60
2022/12/20 01:33:12;;;;;;;;;;;;;;;4.36;77.93;101533.34;5080597;28;19924;-60
2022/12/20 01:35:38;;;;;;;;;;;;;;;4.33;77.95;101514.28;5081567;28;19940;-58
2022/12/20 01:38:03;;;;;;;;;;;;;;;4.31;78.21;101518.69;5079816;28;19920;-58
2022/12/20 01:40:28;;;;;;;;;;;;;;;4.31;78.37;101523.88;5078253;28;19928;-58
2022/12/20 01:42:54;;;;;;;;;;;;;;;4.32;78.32;101520.38;5077352;28;20299;-62
2022/12/20 01:45:25;;;;;;;;;;;;;;;4.33;78.33;101528.19;5080990;28;19928;-58
2022/12/20 01:47:50;;;;;;;;;;;;;;;4.34;78.40;101523.81;5078311;28;19949;-58
2022/12/20 01:50:16;;;;;;;;;;;;;;;4.35;78.37;101522.91;5077043;28;19918;-60
2022/12/20 01:52:44;;;;;;;;;;;;;;;4.36;78.01;101516.81;5083506;28;19960;-60
2022/12/20 01:55:15;;;;;;;;;;;;;;;4.38;78.08;101509.84;5084612;28;19982;-58
2022/12/20 01:57:41;;;;;;;;;;;;;;;4.36;78.04;101507.28;5077153;28;19920;-58
2022/12/20 02:00:08;;;;;;;;;;;;;;;4.34;78.17;101508.19;5080769;28;19916;-56
2022/12/20 02:02:34;;;;;;;;;;;;;;;4.32;77.87;101504.72;5080250;28;19932;-60
2022/12/20 02:04:59;;;;;;;;;;;;;;;4.24;78.14;101490.13;5079965;28;19948;-57
2022/12/20 02:07:27;;;;;;;;;;;;;;;4.18;77.95;101481.56;5079983;28;19916;-60
2022/12/20 02:09:54;;;;;;;;;;;;;;;4.14;78.31;101499.00;5083332;28;19969;-59
2022/12/20 02:12:21;;;;;;;;;;;;;;;4.13;78.33;101497.28;5081706;28;19934;-58
2022/12/20 02:14:58;;;;;;;;;;;;;;;4.13;77.98;101499.91;5080806;28;19916;-58
2022/12/20 02:17:24;;;;;;;;;;;;;;;4.11;78.11;101501.66;5079477;28;19962;-59
2022/12/20 02:19:52;;;;;;;;;;;;;;;4.12;78.46;101506.84;5081729;28;19951;-61
2022/12/20 02:22:40;;;;;;;;;;;;;;;4.18;78.39;101510.22;5079721;28;20012;-58
2022/12/20 02:25:06;;;;;;;;;;;;;;;4.21;78.42;101518.00;5069726;28;19931;-58
2022/12/20 02:27:31;;;;;;;;;;;;;;;4.20;78.24;101522.31;5071781;28;19998;-59
2022/12/20 02:30:02;;;;;;;;;;;;;;;4.22;78.04;101514.50;5088118;28;20374;-59
2022/12/20 02:32:32;;;;;;;;;;;;;;;4.22;78.07;101510.13;5080662;28;19974;-61
2022/12/20 02:34:58;;;;;;;;;;;;;;;4.23;78.09;101517.06;5070265;28;19915;-59
2022/12/20 02:37:23;;;;;;;;;;;;;;;4.19;78.04;101504.97;5077874;28;20351;-61
2022/12/20 02:39:48;;;;;;;;;;;;;;;4.17;78.21;101503.28;5076426;28;19924;-61
2022/12/20 02:42:16;;;;;;;;;;;;;;;4.10;78.38;101505.16;5079744;28;19982;-58
2022/12/20 02:47:39;;;;;;;;;;;;;;;4.07;78.37;101495.66;5078301;28;20444;-56
2022/12/20 02:50:06;;;;;;;;;;;;;;;4.02;78.37;101496.59;5080024;28;20427;-60
2022/12/20 02:52:32;;;;;;;;;;;;;;;3.96;78.88;101493.25;5084257;28;19950;-59
2022/12/20 02:54:58;;;;;;;;;;;;;;;4.00;78.68;101493.19;5080153;28;20003;-59
2022/12/20 02:57:23;;;;;;;;;;;;;;;4.03;78.99;101494.00;5077050;28;19916;-59
2022/12/20 03:00:10;;;;;;;;;;;;;;;4.08;78.78;101491.28;5080700;28;19928;-58
2022/12/20 03:05:21;;;;;;;;;;;;;;;4.14;78.63;101493.81;5084300;28;19957;-58
2022/12/20 03:07:46;;;;;;;;;;;;;;;4.17;78.51;101490.28;5061119;28;19924;-57
2022/12/20 03:10:12;;;;;;;;;;;;;;;4.20;78.22;101485.00;5075394;28;19920;-58
2022/12/20 03:12:37;;;;;;;;;;;;;;;4.19;78.34;101481.53;5078000;28;20026;-57
2022/12/20 03:15:02;;;;;;;;;;;;;;;4.21;78.31;101487.56;5075287;28;20403;-59
2022/12/20 03:17:28;;;;;;;;;;;;;;;4.26;78.50;101495.28;5074491;28;19916;-58
2022/12/20 03:19:53;;;;;;;;;;;;;;;4.30;78.21;101483.09;5083261;28;19988;-57
2022/12/20 03:22:18;;;;;;;;;;;;;;;4.31;78.05;101485.66;5083106;28;19924;-58
2022/12/20 03:24:44;;;;;;;;;;;;;;;4.35;78.08;101474.28;5087834;28;19919;-59
2022/12/20 03:27:10;;;;;;;;;;;;;;;4.38;78.10;101479.44;5082874;28;20476;-60
2022/12/20 03:29:35;;;;;;;;;;;;;;;4.39;77.92;101470.72;5084556;28;19927;-62
2022/12/20 03:32:00;;;;;;;;;;;;;;;4.45;78.06;101472.34;5091242;28;19928;-60
2022/12/20 03:34:25;;;;;;;;;;;;;;;4.47;78.01;101467.94;5086998;28;19923;-58
2022/12/20 03:36:51;;;;;;;;;;;;;;;4.49;77.56;101463.56;5085908;28;19927;-61
2022/12/20 03:39:16;;;;;;;;;;;;;;;4.53;77.57;101465.22;5086822;28;19920;-61
2022/12/20 03:41:41;;;;;;;;;;;;;;;4.57;77.48;101464.28;5083335;28;19917;-60
2022/12/20 03:44:07;;;;;;;;;;;;;;;4.61;77.35;101472.03;5081215;28;19920;-60
2022/12/20 03:46:32;;;;;;;;;;;;;;;4.63;77.22;101465.03;5081962;28;19923;-59
2022/12/20 03:48:57;;;;;;;;;;;;;;;4.65;77.36;101466.72;5081896;28;19921;-58
2022/12/20 03:51:23;;;;;;;;;;;;;;;4.68;77.08;101473.63;5081790;28;19924;-60
2022/12/20 03:53:48;;;;;;;;;;;;;;;4.71;77.35;101470.94;5090558;28;20019;-59
2022/12/20 03:56:13;;;;;;;;;;;;;;;4.73;77.33;101480.44;5080811;28;19916;-59
2022/12/20 03:58:39;;;;;;;;;;;;;;;4.76;76.96;101483.88;5070857;28;20758;-60
2022/12/20 04:01:23;;;;;;;;;;;;;;;4.78;76.83;101482.09;5081855;28;19927;-61
2022/12/20 04:03:49;;;;;;;;;;;;;;;4.77;76.58;101486.44;5088563;28;19920;-58
2022/12/20 04:06:14;;;;;;;;;;;;;;;4.79;76.49;101478.59;5084547;28;19916;-60
2022/12/20 04:08:40;;;;;;;;;;;;;;;4.77;76.84;101481.22;5085789;28;19920;-61
2022/12/20 04:11:18;;;;;;;;;;;;;;;4.78;76.87;101482.94;5082962;28;19924;-58
2022/12/20 04:13:44;;;;;;;;;;;;;;;4.75;76.61;101479.56;5083637;28;20032;-58
2022/12/20 04:16:10;;;;;;;;;;;;;;;4.73;76.77;101484.81;5083252;28;20368;-60
2022/12/20 04:18:36;;;;;;;;;;;;;;;4.73;76.77;101496.09;5085565;28;20014;-61
2022/12/20 04:21:01;;;;;;;;;;;;;;;4.77;76.78;101491.66;5085347;28;19920;-58
2022/12/20 04:23:27;;;;;;;;;;;;;;;4.78;77.08;101500.34;5086813;28;19921;-61
2022/12/20 04:25:52;;;;;;;;;;;;;;;4.79;76.72;101497.69;5080290;28;19969;-60
2022/12/20 04:28:17;;;;;;;;;;;;;;;4.79;76.95;101494.25;5080857;28;19942;-61
2022/12/20 04:30:43;;;;;;;;;;;;;;;4.79;76.73;101489.88;5078597;28;19920;-58
2022/12/20 04:33:08;;;;;;;;;;;;;;;4.78;76.98;101493.38;5088740;28;19970;-59
2022/12/20 04:35:33;;;;;;;;;;;;;;;4.80;76.54;101483.78;5083549;28;19916;-62
2022/12/20 04:37:58;;;;;;;;;;;;;;;4.83;77.02;101483.72;5081947;28;19931;-61
2022/12/20 04:40:24;;;;;;;;;;;;;;;4.85;76.56;101484.53;5085126;28;19917;-59
2022/12/20 04:42:49;;;;;;;;;;;;;;;4.85;76.93;101479.31;5089795;28;20387;-58
2022/12/20 04:45:15;;;;;;;;;;;;;;;4.81;76.76;101482.88;5088510;28;20384;-59
2022/12/20 04:47:40;;;;;;;;;;;;;;;4.80;76.77;101464.69;5086548;28;21099;-58
2022/12/20 04:50:06;;;;;;;;;;;;;;;4.81;76.64;101466.41;5085402;28;19919;-60
2022/12/20 04:55:15;;;;;;;;;;;;;;;4.77;76.62;101469.94;5080986;28;19923;-57
2022/12/20 04:57:40;;;;;;;;;;;;;;;4.78;76.45;101472.50;5079152;28;19924;-58
2022/12/20 05:00:06;;;;;;;;;;;;;;;4.77;76.46;101470.78;5074990;28;19932;-61
2022/12/20 05:02:31;;;;;;;;;;;;;;;4.73;76.88;101470.00;5078534;28;19916;-59
2022/12/20 05:04:57;;;;;;;;;;;;;;;4.71;76.59;101470.94;5075551;28;20435;-60
2022/12/20 05:07:22;;;;;;;;;;;;;;;4.71;76.93;101461.34;5076283;28;20577;-57
2022/12/20 05:09:48;;;;;;;;;;;;;;;4.69;76.66;101450.09;5060520;28;19920;-58
2022/12/20 05:12:13;;;;;;;;;;;;;;;4.64;76.59;101445.88;5078394;28;19924;-58
2022/12/20 05:14:38;;;;;;;;;;;;;;;4.61;76.77;101445.97;5078399;28;19921;-63
2022/12/20 05:17:03;;;;;;;;;;;;;;;4.60;76.75;101446.88;5078329;28;20003;-61
2022/12/20 05:19:29;;;;;;;;;;;;;;;4.62;77.14;101443.31;5080732;28;19925;-59
2022/12/20 05:27:22;;;;;;;;;;;;;;;4.70;76.74;101448.38;5084755;28;20407;-64
2022/12/20 05:29:47;;;;;;;;;;;;;;;4.74;76.91;101450.03;5075600;28;19920;-58
2022/12/20 05:32:13;;;;;;;;;;;;;;;4.77;76.65;101447.31;5065864;28;19929;-59
2022/12/20 05:34:38;;;;;;;;;;;;;;;4.79;76.34;101442.94;5071677;28;20353;-61
2022/12/20 05:37:03;;;;;;;;;;;;;;;4.78;76.56;101441.22;5066639;28;19950;-64
2022/12/20 05:39:28;;;;;;;;;;;;;;;4.76;76.27;101443.03;5064689;28;19924;-60
2022/12/20 05:41:54;;;;;;;;;;;;;;;4.71;76.39;101444.88;5064386;28;19923;-62
2022/12/20 05:44:21;;;;;;;;;;;;;;;4.69;76.00;101446.66;5082800;28;19930;-60
2022/12/20 05:46:46;;;;;;;;;;;;;;;4.63;76.14;101446.78;5083729;28;19916;-57
2022/12/20 05:49:11;;;;;;;;;;;;;;;4.61;76.31;101448.59;5078065;28;19916;-60
2022/12/20 05:51:37;;;;;;;;;;;;;;;4.54;76.59;101448.69;5079934;28;19966;-58
2022/12/20 05:54:02;;;;;;;;;;;;;;;4.54;76.63;101453.91;5065017;28;19923;-62
2022/12/20 05:56:28;;;;;;;;;;;;;;;4.49;76.31;101445.31;5070997;28;19985;-59
2022/12/20 05:58:53;;;;;;;;;;;;;;;4.43;76.51;101442.88;5077678;28;19916;-59
2022/12/20 06:01:19;;;;;;;;;;;;;;;4.39;76.69;101447.25;5076274;28;20323;-57
2022/12/20 06:03:44;;;;;;;;;;;;;;;4.34;76.85;101450.84;5076213;28;19927;-61
2022/12/20 06:06:10;;;;;;;;;;;;;;;4.34;76.53;101463.88;5076853;28;19920;-56
2022/12/20 06:08:36;;;;;;;;;;;;;;;4.32;76.69;101463.03;5083444;28;19916;-60
2022/12/20 06:11:03;;;;;;;;;;;;;;;4.32;77.10;101458.72;5080996;28;19920;-62
2022/12/20 06:13:29;;;;;;;;;;;;;;;4.32;77.17;101457.84;5076892;28;19966;-58
2022/12/20 06:15:54;;;;;;;;;;;;;;;4.32;76.86;101468.25;5080661;28;19921;-61
2022/12/20 06:18:19;;;;;;;;;;;;;;;4.32;77.20;101458.72;5076741;28;19960;-60
2022/12/20 06:20:48;;;;;;;;;;;;;;;4.34;76.80;101450.84;5075795;28;20015;-58
2022/12/20 06:23:14;;;;;;;;;;;;;;;4.34;77.15;101456.06;5082102;28;19923;-59
2022/12/20 06:25:39;;;;;;;;;;;;;;;4.37;76.75;101456.88;5077541;28;19927;-60
2022/12/20 06:28:06;;;;;;;;;;;;;;;4.38;77.00;101447.28;5074941;28;20371;-60
2022/12/20 06:30:31;;;;;;;;;;;;;;;4.39;77.01;101454.22;5081232;28;19957;-57
2022/12/20 06:32:57;;;;;;;;;;;;;;;4.40;76.88;101455.94;5084601;28;19928;-58
2022/12/20 06:35:22;;;;;;;;;;;;;;;4.42;76.92;101455.00;5076557;28;20333;-60
2022/12/20 06:37:47;;;;;;;;;;;;;;;4.45;76.83;101454.13;5079196;28;20341;-57
2022/12/20 06:40:13;;;;;;;;;;;;;;;4.47;76.93;101465.34;5078245;28;19927;-59
2022/12/20 06:42:38;;;;;;;;;;;;;;;4.51;76.57;101473.97;5082964;28;19920;-61
2022/12/20 06:45:04;;;;;;;;;;;;;;;4.54;76.52;101453.91;5080291;28;19924;-58
2022/12/20 06:47:29;;;;;;;;;;;;;;;4.55;76.54;101459.97;5078216;28;19921;-58
2022/12/20 06:49:55;;;;;;;;;;;;;;;4.56;76.31;101453.88;5082787;28;19947;-58
2022/12/20 06:52:20;;;;;;;;;;;;;;;4.57;76.33;101456.47;5078618;28;19931;-56
2022/12/20 06:54:45;;;;;;;;;;;;;;;4.58;76.47;101458.19;5097029;28;19916;-57
2022/12/20 06:57:11;;;;;;;;;;;;;;;4.61;76.55;101456.41;5081701;28;21405;-58
2022/12/20 06:59:36;;;;;;;;;;;;;;;4.63;76.71;101457.19;5090305;28;20008;-58
2022/12/20 07:02:02;;;;;;;;;;;;;;;4.63;76.31;101467.63;5084358;28;19922;-57
2022/12/20 07:04:27;;;;;;;;;;;;;;;4.66;76.40;101467.56;5082340;28;20023;-60
2022/12/20 07:06:52;;;;;;;;;;;;;;;4.67;76.76;101474.50;5081782;28;20290;-60
2022/12/20 07:09:18;;;;;;;;;;;;;;;4.70;76.88;101479.66;5084099;28;19916;-56
2022/12/20 07:11:43;;;;;;;;;;;;;;;4.73;76.75;101493.47;5083335;28;19944;-59
2022/12/20 07:14:09;;;;;;;;;;;;;;;4.77;76.32;101483.84;5086400;28;19962;-59
2022/12/20 07:16:34;;;;;;;;;;;;;;;4.81;76.30;101498.53;5082053;28;20047;-60
2022/12/20 07:19:00;;;;;;;;;;;;;;;4.84;76.28;101488.03;5084320;28;19926;-60
2022/12/20 07:21:26;;;;;;;;;;;;;;;4.87;76.13;101481.88;5085778;28;20003;-64
2022/12/20 07:23:51;;;;;;;;;;;;;;;4.87;76.51;101482.75;5085061;28;19911;-59
2022/12/20 07:26:16;;;;;;;;;;;;;;;4.91;76.23;101482.69;5082492;28;19925;-57
2022/12/20 07:28:42;;;;;;;;;;;;;;;4.87;76.74;101474.06;5084135;28;20018;-57
2022/12/20 07:31:08;;;;;;;;;;;;;;;4.86;76.54;101462.78;5087420;28;20376;-61
2022/12/20 07:33:33;;;;;;;;;;;;;;;4.87;76.49;101448.84;5086587;28;20332;-65
2022/12/20 07:35:59;;;;;;;;;;;;;;;4.90;76.57;101441.88;5093402;28;19927;-58
2022/12/20 07:38:25;;;;;;;;;;;;;;;4.92;76.59;101453.09;5092681;28;19927;-58
2022/12/20 07:40:50;;;;;;;;;;;;;;;4.92;76.43;101458.31;5088192;28;19916;-59
2022/12/20 07:43:15;;;;;;;;;;;;;;;4.93;76.72;101454.81;5083794;28;19923;-62
2022/12/20 07:45:41;;;;;;;;;;;;;;;4.92;76.64;101458.31;5085480;28;19969;-57
2022/12/20 07:48:06;;;;;;;;;;;;;;;4.90;76.86;101453.13;5085225;28;19920;-61
2022/12/20 07:50:32;;;;;;;;;;;;;;;4.91;76.74;101460.06;5089950;28;19989;-59
2022/12/20 07:52:58;;;;;;;;;;;;;;;4.93;76.71;101466.13;5091152;28;19920;-60
2022/12/20 07:55:23;;;;;;;;;;;;;;;4.93;76.56;101462.63;5087482;28;19923;-60
2022/12/20 07:57:55;;;;;;;;;;;;;;;4.95;76.78;101469.56;5087375;28;19916;-61
2022/12/20 08:00:20;;;;;;;;;;;;;;;4.95;76.76;101473.88;5086804;28;20407;-57
2022/12/20 08:02:48;;;;;;;;;;;;;;;4.95;76.97;101479.97;5095760;28;19970;-64
2022/12/20 08:05:13;;;;;;;;;;;;;;;4.97;76.80;101477.31;5070275;28;19993;-59
2022/12/20 08:07:40;;;;;;;;;;;;;;;4.99;76.93;101485.97;5083410;28;19959;-63
2022/12/20 08:10:07;;;;;;;;;;;;;;;5.01;76.96;101486.81;5098651;28;19923;-60
2022/12/20 08:12:32;;;;;;;;;;;;;;;5.08;76.68;101493.59;5083997;28;20488;-56
2022/12/20 08:14:58;;;;;;;;;;;;;;;5.11;76.96;101488.31;5087698;28;19919;-58
2022/12/20 08:17:24;;;;;;;;;;;;;;;5.15;76.91;101484.75;5076882;28;19931;-56
2022/12/20 08:19:52;;;;;;;;;;;;;;;5.16;76.88;101481.25;5085922;28;20387;-62
2022/12/20 08:22:18;;;;;;;;;;;;;;;5.16;76.67;101480.38;5089873;28;19916;-61
2022/12/20 08:24:44;;;;;;;;;;;;;;;5.16;76.85;101476.03;5084040;28;19956;-61
2022/12/20 08:27:09;;;;;;;;;;;;;;;5.18;76.72;101482.06;5079579;28;20355;-57
2022/12/20 08:29:34;;;;;;;;;;;;;;;5.15;76.95;101492.56;5082509;28;19916;-57
2022/12/20 08:32:00;;;;;;;;;;;;;;;5.18;77.24;101495.13;5087394;28;19930;-60
2022/12/20 08:34:25;;;;;;;;;;;;;;;5.21;76.95;101483.75;5086132;28;19924;-59
2022/12/20 08:36:51;;;;;;;;;;;;;;;5.25;77.08;101480.16;5081998;28;20256;-59
2022/12/20 08:39:16;;;;;;;;;;;;;;;5.26;77.08;101488.84;5090893;28;19916;-58
2022/12/20 08:41:41;;;;;;;;;;;;;;;5.28;76.77;101477.50;5087780;28;19952;-58
2022/12/20 08:44:07;;;;;;;;;;;;;;;5.30;77.20;101480.91;5076740;28;19927;-56
2022/12/20 08:46:32;;;;;;;;;;;;;;;5.34;76.97;101477.31;5076836;28;20346;-59
2022/12/20 08:48:58;;;;;;;;;;;;;;;5.33;76.86;101480.00;5083869;28;19921;-57
2022/12/20 08:51:23;;;;;;;;;;;;;;;5.37;76.83;101476.38;5078910;28;19921;-59
2022/12/20 08:53:48;;;;;;;;;;;;;;;5.41;77.22;101477.19;5092822;28;19975;-58
2022/12/20 08:56:15;;;;;;;;;;;;;;;5.45;77.01;101481.41;5082995;28;20015;-57
2022/12/20 08:58:41;;;;;;;;;;;;;;;5.47;76.77;101485.72;5081586;28;19920;-62
2022/12/20 09:01:07;;;;;;;;;;;;;;;5.51;76.75;101485.66;5081642;28;19916;-60
2022/12/20 09:03:34;;;;;;;;;;;;;;;5.53;76.79;101483.84;5087620;28;19919;-57
2022/12/20 09:06:00;;;;;;;;;;;;;;;5.52;76.97;101484.78;5084333;28;19923;-59
2022/12/20 09:08:25;;;;;;;;;;;;;;;5.53;77.06;101473.41;5083018;28;19920;-57
2022/12/20 09:10:51;;;;;;;;;;;;;;;5.54;77.46;101473.38;5091425;28;19927;-60
2022/12/20 09:13:16;;;;;;;;;;;;;;;5.56;77.00;101481.16;5085522;28;20079;-60
2022/12/20 09:15:42;;;;;;;;;;;;;;;5.57;77.22;101488.97;5088796;28;20294;-59
2022/12/20 09:18:07;;;;;;;;;;;;;;;5.61;77.55;101477.53;5084336;28;19932;-57
2022/12/20 09:20:33;;;;;;;;;;;;;;;5.67;77.49;101473.06;5086314;28;19920;-60
2022/12/20 09:22:59;;;;;;;;;;;;;;;5.71;77.24;101480.78;5076908;28;20299;-56
2022/12/20 09:25:25;;;;;;;;;;;;;;;5.73;77.07;101476.38;5076382;28;20760;-58
2022/12/20 09:27:50;;;;;;;;;;;;;;;5.78;77.53;101484.09;5080157;28;19935;-59
2022/12/20 09:30:15;;;;;;;;;;;;;;;5.83;77.31;101466.56;5083441;28;19917;-62
2022/12/20 09:32:41;;;;;;;;;;;;;;;5.90;77.08;101470.69;5083057;28;19935;-60
2022/12/20 09:35:06;;;;;;;;;;;;;;;5.97;77.09;101470.56;5085549;28;20011;-57
2022/12/20 09:37:32;;;;;;;;;;;;;;;6.00;77.42;101473.97;5081095;28;19920;-62
2022/12/20 09:39:57;;;;;;;;;;;;;;;6.02;77.67;101453.88;5079011;28;19913;-59
2022/12/20 09:42:26;;;;;;;;;;;;;;;6.05;77.47;101448.59;5081623;28;19916;-56
2022/12/20 09:44:57;;;;;;;;;;;;;;;6.12;77.51;101448.44;5083244;28;19927;-59
2022/12/20 09:47:23;;;;;;;;;;;;;;;6.14;77.19;101457.06;5079088;28;19917;-57
2022/12/20 09:49:54;;;;;;;;;;;;;;;6.17;77.58;101446.53;5088729;28;19912;-60
2022/12/20 09:52:28;;;;;;;;;;;;;;;6.21;77.44;101453.38;5083124;28;19925;-59
2022/12/20 09:54:54;;;;;;;;;;;;;;;6.23;77.50;101444.59;5085267;28;19947;-58
2022/12/20 09:57:31;;;;;;;;;;;;;;;6.23;77.91;101441.97;5082665;28;19985;-58
2022/12/20 09:59:59;;;;;;;;;;;;;;;6.32;77.39;101451.31;5080308;28;19912;-61
2022/12/20 10:02:25;;;;;;;;;;;;;;;6.36;77.60;101454.69;5082686;28;19959;-56
2022/12/20 10:04:52;;;;;;;;;;;;;;;6.35;77.80;101440.78;5083306;28;19920;-58
2022/12/20 10:07:33;;;;;;;;;;;;;;;6.38;77.79;101447.66;5068003;28;19985;-59
2022/12/20 10:10:02;;;;;;;;;;;;;;;6.34;78.41;101433.84;5087634;28;19919;-58
2022/12/20 10:12:27;;;;;;;;;;;;;;;6.31;78.51;101423.47;5083289;28;19920;-58
2022/12/20 10:15:03;;;;;;;;;;;;;;;6.36;78.56;101423.31;5081439;28;19912;-59
2022/12/20 10:17:47;;;;;;;;;;;;;;;6.34;78.45;101428.59;5085557;28;19999;-58
2022/12/20 10:20:28;;;;;;;;;;;;;;;6.39;78.57;101424.13;5078545;28;20006;-60
2022/12/20 10:23:08;;;;;;;;;;;;;;;6.41;78.31;101424.06;5077607;28;19920;-59
2022/12/20 10:25:33;;;;;;;;;;;;;;;6.45;78.12;101416.97;5085771;28;20383;-59
2022/12/20 10:28:03;;;;;;;;;;;;;;;6.43;78.25;101414.41;5081122;28;19916;-59
2022/12/20 10:30:30;;;;;;;;;;;;;;;6.46;78.24;101410.84;5077135;28;19920;-57
2022/12/20 10:32:57;;;;;;;;;;;;;;;6.50;78.18;101433.38;5081791;28;19927;-59
2022/12/20 10:35:27;;;;;;;;;;;;;;;6.52;78.42;101423.75;5068236;28;19926;-58
2022/12/20 10:38:02;;;;;;;;;;;;;;;6.54;78.42;101424.56;5081225;28;19916;-60
2022/12/20 10:40:32;;;;;;;;;;;;;;;6.56;78.43;101412.28;5075880;28;19917;-60
2022/12/20 10:42:58;;;;;;;;;;;;;;;6.59;78.41;101403.50;5086557;28;19916;-61
2022/12/20 10:45:42;;;;;;;;;;;;;;;6.55;78.84;101397.50;5075612;28;19924;-58
2022/12/20 10:48:28;;;;;;;;;;;;;;;6.55;78.72;101400.13;5091179;28;19919;-58
2022/12/20 10:50:58;;;;;;;;;;;;;;;6.56;79.05;101399.22;5076493;28;19921;-59
2022/12/20 10:53:24;;;;;;;;;;;;;;;6.59;78.92;101393.88;5078196;28;19959;-57
2022/12/20 10:55:50;;;;;;;;;;;;;;;6.61;79.11;101384.22;5091109;28;19939;-57
2022/12/20 10:58:34;;;;;;;;;;;;;;;6.64;79.39;101378.91;5074223;28;19924;-57
2022/12/20 11:01:11;;;;;;;;;;;;;;;6.68;79.56;101370.06;5076234;28;19916;-57
2022/12/20 11:03:50;;;;;;;;;;;;;;;6.75;79.35;101369.88;5077161;28;19966;-57
2022/12/20 11:06:17;;;;;;;;;;;;;;;6.77;79.34;101368.94;5085907;28;19916;-60
2022/12/20 11:08:43;;;;;;;;;;;;;;;6.86;79.14;101373.00;5078865;28;20295;-59
2022/12/20 11:11:15;;;;;;;;;;;;;;;6.90;78.89;101374.59;5082686;28;19928;-57
2022/12/20 11:13:40;;;;;;;;;;;;;;;6.92;79.22;101356.25;5078040;28;19920;-58
2022/12/20 11:16:21;;;;;;;;;;;;;;;6.91;79.27;101358.00;5075140;28;19931;-57
2022/12/20 11:19:02;;;;;;;;;;;;;;;6.93;79.41;101350.97;5082887;28;20019;-57
2022/12/20 11:21:53;;;;;;;;;;;;;;;6.98;79.15;101346.44;5089603;28;19920;-59
2022/12/20 11:24:37;;;;;;;;;;;;;;;6.98;79.35;101337.72;5043719;28;19970;-60
2022/12/20 11:27:02;;;;;;;;;;;;;;;6.97;79.29;101331.66;5081173;28;20003;-59
2022/12/20 11:29:31;;;;;;;;;;;;;;;6.96;79.40;101329.94;5081496;28;20003;-59
2022/12/20 11:32:22;;;;;;;;;;;;;;;6.96;79.41;101324.72;5079133;28;19924;-60
2022/12/20 11:34:47;;;;;;;;;;;;;;;6.93;79.40;101324.81;5086106;28;19920;-57
2022/12/20 11:37:18;;;;;;;;;;;;;;;6.98;79.35;101328.13;5081040;28;19948;-59
2022/12/20 11:39:58;;;;;;;;;;;;;;;7.03;79.21;101327.13;5070932;28;20350;-59
2022/12/20 11:42:42;;;;;;;;;;;;;;;7.07;79.36;101329.59;5091821;28;19920;-59
2022/12/20 11:45:13;;;;;;;;;;;;;;;7.13;79.48;101321.50;5094999;28;20036;-61
2022/12/20 11:47:44;;;;;;;;;;;;;;;7.15;79.41;101321.47;5094739;28;19958;-58
2022/12/20 11:50:12;;;;;;;;;;;;;;;7.17;79.17;101310.03;5079528;28;20059;-57
2022/12/20 11:52:42;;;;;;;;;;;;;;;7.25;79.19;101299.31;5087721;28;19965;-60
2022/12/20 11:55:21;;;;;;;;;;;;;;;7.29;78.94;101303.53;5088395;28;20547;-61
2022/12/20 11:57:56;;;;;;;;;;;;;;;7.29;78.98;101303.53;5085647;28;20007;-61
2022/12/20 12:00:22;;;;;;;;;;;;;;;7.30;78.82;101294.78;5085184;28;19920;-56
2022/12/20 12:02:50;;;;;;;;;;;;;;;7.30;78.89;101284.31;5087297;28;19985;-57
2022/12/20 12:05:15;;;;;;;;;;;;;;;7.29;78.93;101279.97;5086677;28;19944;-60
2022/12/20 12:07:44;;;;;;;;;;;;;;;7.32;78.91;101265.91;5080085;28;20001;-57
2022/12/20 12:10:18;;;;;;;;;;;;;;;7.35;78.78;101270.16;5080114;28;19924;-58
2022/12/20 12:12:45;;;;;;;;;;;;;;;7.33;78.83;101265.00;5083674;28;20306;-59
2022/12/20 12:15:30;;;;;;;;;;;;;;;7.31;78.49;101257.22;5082165;22;19960;-57
2022/12/20 12:17:59;;;;;;;;;;;;;;;7.29;78.73;101272.13;5047261;28;19924;-59
2022/12/20 12:20:27;;;;;;;;;;;;;;;7.29;78.69;101277.34;5047346;28;19921;-57
2022/12/20 12:23:01;;;;;;;;;;;;;;;7.32;78.62;101282.50;5044672;28;19963;-57
2022/12/20 12:25:27;;;;;;;;;;;;;;;7.29;78.56;101272.13;5058852;28;20407;-59
2022/12/20 12:27:52;;;;;;;;;;;;;;;7.30;78.63;101263.34;5073722;28;19927;-59
2022/12/20 12:30:17;;;;;;;;;;;;;;;7.25;78.74;101267.88;5072138;28;19935;-59
2022/12/20 12:32:43;;;;;;;;;;;;;;;7.24;78.89;101274.03;5079424;28;19921;-58
2022/12/20 12:35:29;;;;;;;;;;;;;;;7.27;78.82;101268.69;5055514;28;20352;-56
2022/12/20 12:38:17;;;;;;;;;;;;;;;7.28;78.69;101262.56;5036365;28;19981;-61
2022/12/20 12:40:58;;;;;;;;;;;;;;;7.29;78.61;101264.25;5069517;28;21476;-58
2022/12/20 12:43:42;;;;;;;;;;;;;;;7.32;78.41;101273.75;5076815;28;19913;-57
2022/12/20 12:46:12;;;;;;;;;;;;;;;7.34;78.30;101266.72;5071266;28;19966;-60
2022/12/20 12:48:43;;;;;;;;;;;;;;;7.36;78.35;101270.13;5075350;28;20298;-58
2022/12/20 12:51:10;;;;;;;;;;;;;;;7.38;78.12;101256.97;5062055;28;19912;-61
2022/12/20 12:53:50;;;;;;;;;;;;;;;7.37;78.23;101253.50;5076561;28;19920;-57
2022/12/20 12:56:24;;;;;;;;;;;;;;;7.36;78.25;101248.31;5072921;28;20037;-59
2022/12/20 12:59:04;;;;;;;;;;;;;;;7.35;78.13;101249.22;5078704;28;20007;-61
2022/12/20 13:01:42;;;;;;;;;;;;;;;7.32;78.05;101251.06;5068451;28;19947;-62
2022/12/20 13:04:09;;;;;;;;;;;;;;;7.33;78.09;101244.91;5067194;28;19927;-59